Time;durP1;ratioP1;P1;durP2;ratioP2;P2;SDS_P1;SDS_P2;PMS_P1;PMS_P2;Temp;Humidity;BMP_temperature;BMP_pressure;BME280_temperature;BME280_humidity;BME280_pressure;Samples;Min_cycle;Max_cycle;Signal;HPM_P1;HPM_P2
2021/03/16 00:02:12;;;;;;;7.57;4.20;;;6.50;76.60;;;;;;5040340;28;20556;-39
2021/03/16 00:04:38;;;;;;;15.90;5.00;;;6.50;77.10;;;;;;5006436;28;20554;-39
2021/03/16 00:07:09;;;;;;;6.00;3.80;;;6.40;77.10;;;;;;5024522;28;20517;-39
2021/03/16 00:09:35;;;;;;;8.43;4.17;;;6.40;77.50;;;;;;5010857;28;20835;-40
2021/03/16 00:12:07;;;;;;;6.67;4.30;;;6.40;77.50;;;;;;5029567;28;20497;-40
2021/03/16 00:14:33;;;;;;;7.60;4.37;;;6.40;76.70;;;;;;5027954;28;20495;-40
2021/03/16 00:16:59;;;;;;;6.53;4.60;;;6.40;76.30;;;;;;5004921;28;20911;-40
2021/03/16 00:19:28;;;;;;;12.80;5.50;;;6.40;76.20;;;;;;5028244;28;20494;-39
2021/03/16 00:21:54;;;;;;;6.63;4.67;;;6.40;76.20;;;;;;5027487;28;20517;-39
2021/03/16 00:24:21;;;;;;;12.77;5.40;;;6.40;76.30;;;;;;5024722;28;20542;-39
2021/03/16 00:26:47;;;;;;;11.40;5.90;;;6.40;76.00;;;;;;5007827;28;20450;-39
2021/03/16 00:29:15;;;;;;;9.37;6.07;;;6.50;76.00;;;;;;5023166;28;20459;-39
2021/03/16 00:31:42;;;;;;;11.53;5.20;;;6.40;75.30;;;;;;5028479;28;20491;-39
2021/03/16 00:34:09;;;;;;;11.20;5.70;;;6.40;75.70;;;;;;5025276;28;20490;-39
2021/03/16 00:36:35;;;;;;;10.73;5.50;;;6.40;76.00;;;;;;5009415;28;20537;-39
2021/03/16 00:39:02;;;;;;;10.50;5.90;;;6.40;76.00;;;;;;5040647;28;20878;-39
2021/03/16 00:41:29;;;;;;;6.97;5.53;;;6.40;75.80;;;;;;5024855;28;20486;-39
2021/03/16 00:43:55;;;;;;;10.90;6.20;;;6.40;75.90;;;;;;5039613;28;20467;-39
2021/03/16 00:46:23;;;;;;;9.93;6.60;;;6.50;76.00;;;;;;5009112;28;21013;-39
2021/03/16 00:48:50;;;;;;;15.70;6.43;;;6.50;76.50;;;;;;5028358;28;20487;-39
2021/03/16 00:51:16;;;;;;;9.57;6.00;;;6.50;76.50;;;;;;5024001;28;20940;-39
2021/03/16 00:53:43;;;;;;;8.70;5.90;;;6.60;76.10;;;;;;5027443;28;20502;-39
2021/03/16 00:56:09;;;;;;;10.43;5.60;;;6.50;76.50;;;;;;5023239;28;21024;-39
2021/03/16 00:58:38;;;;;;;8.83;4.87;;;6.50;76.30;;;;;;5009574;28;20460;-39
2021/03/16 01:01:06;;;;;;;5.63;3.53;;;6.50;75.90;;;;;;5023322;28;20583;-39
2021/03/16 01:03:34;;;;;;;7.00;3.53;;;6.50;74.60;;;;;;5024235;28;20452;-39
2021/03/16 01:06:02;;;;;;;14.03;3.60;;;6.50;74.60;;;;;;5024447;28;20960;-39
2021/03/16 01:08:28;;;;;;;8.33;3.17;;;6.50;74.40;;;;;;5004819;28;20460;-39
2021/03/16 01:10:57;;;;;;;5.67;4.00;;;6.50;74.30;;;;;;5009315;28;20761;-39
2021/03/16 01:13:25;;;;;;;3.07;2.43;;;6.50;74.00;;;;;;5024412;28;20749;-39
2021/03/16 01:15:54;;;;;;;4.37;2.23;;;6.50;74.30;;;;;;5026521;28;20526;-39
2021/03/16 01:18:21;;;;;;;10.70;2.90;;;6.50;74.50;;;;;;5008314;28;20464;-39
2021/03/16 01:20:47;;;;;;;2.83;2.60;;;6.50;74.60;;;;;;5009926;28;20465;-39
2021/03/16 01:23:17;;;;;;;6.10;3.30;;;6.40;74.40;;;;;;5025189;28;20554;-39
2021/03/16 01:26:06;;;;;;;6.77;3.20;;;6.40;74.60;;;;;;5023000;28;20533;-39
2021/03/16 01:28:33;;;;;;;8.07;3.43;;;6.50;74.90;;;;;;5021824;28;20565;-39
2021/03/16 01:31:00;;;;;;;5.70;3.80;;;6.40;74.80;;;;;;5022164;28;20876;-39
2021/03/16 01:33:31;;;;;;;9.30;4.43;;;6.40;74.70;;;;;;5023099;28;20467;-39
2021/03/16 01:35:57;;;;;;;7.33;4.00;;;6.40;74.60;;;;;;5024592;28;20491;-39
2021/03/16 01:38:24;;;;;;;7.53;4.70;;;6.40;74.40;;;;;;5024163;28;20575;-39
2021/03/16 01:40:50;;;;;;;8.13;4.40;;;6.40;74.50;;;;;;5040837;28;20536;-39
2021/03/16 01:43:26;;;;;;;8.07;3.80;;;6.40;73.90;;;;;;5023701;28;20550;-39
2021/03/16 01:45:53;;;;;;;10.80;4.53;;;6.40;74.30;;;;;;5024816;28;20554;-39
2021/03/16 01:48:33;;;;;;;7.87;4.27;;;6.40;74.40;;;;;;5009332;28;20526;-39
2021/03/16 01:51:11;;;;;;;8.40;3.17;;;6.40;74.30;;;;;;5021458;28;20925;-39
2021/03/16 01:53:42;;;;;;;10.83;3.77;;;6.40;74.30;;;;;;5027592;28;20812;-39
2021/03/16 01:56:24;;;;;;;9.93;4.03;;;6.40;74.90;;;;;;5025853;28;20969;-39
2021/03/16 01:58:54;;;;;;;9.00;5.80;;;6.40;75.00;;;;;;5025522;28;21063;-39
2021/03/16 02:01:28;;;;;;;10.90;4.40;;;6.40;75.10;;;;;;5024509;28;20518;-39
2021/03/16 02:03:54;;;;;;;10.53;5.03;;;6.40;75.30;;;;;;5021830;28;20478;-39
2021/03/16 02:06:39;;;;;;;7.03;4.20;;;6.40;75.40;;;;;;5007005;28;20440;-39
2021/03/16 02:09:37;;;;;;;8.30;5.03;;;6.50;75.60;;;;;;5022218;28;20821;-39
2021/03/16 02:12:11;;;;;;;9.67;5.47;;;6.50;75.60;;;;;;5041203;28;20546;-39
2021/03/16 02:15:07;;;;;;;10.33;4.83;;;6.50;75.30;;;;;;5019028;28;20932;-39
2021/03/16 02:17:35;;;;;;;7.50;5.20;;;6.60;75.30;;;;;;5015053;28;20463;-39
2021/03/16 02:20:43;;;;;;;7.53;5.57;;;6.60;75.30;;;;;;5007794;28;20634;-39
2021/03/16 02:23:14;;;;;;;11.63;6.23;;;6.60;75.80;;;;;;4955418;28;20626;-39
2021/03/16 02:26:01;;;;;;;15.23;4.90;;;6.60;76.00;;;;;;5019829;28;20464;-39
2021/03/16 02:29:01;;;;;;;13.80;7.90;;;6.60;76.40;;;;;;5024029;28;21099;-39
2021/03/16 02:31:28;;;;;;;9.40;6.30;;;6.60;76.80;;;;;;5013681;28;20463;-39
2021/03/16 02:33:56;;;;;;;10.00;5.37;;;6.60;77.10;;;;;;5008288;28;20455;-39
2021/03/16 02:36:24;;;;;;;8.73;5.50;;;6.60;77.20;;;;;;5005966;28;20466;-40
2021/03/16 02:38:52;;;;;;;8.57;4.83;;;6.60;77.40;;;;;;5022629;28;20863;-40
2021/03/16 02:41:20;;;;;;;8.73;4.80;;;6.60;76.70;;;;;;5024289;28;20546;-40
2021/03/16 02:43:47;;;;;;;11.33;4.67;;;6.60;76.10;;;;;;5024448;28;20565;-40
2021/03/16 02:46:16;;;;;;;7.53;4.73;;;6.60;76.30;;;;;;5025310;28;20459;-40
2021/03/16 02:48:48;;;;;;;14.13;6.40;;;6.50;76.40;;;;;;5019495;28;20456;-40
2021/03/16 02:51:16;;;;;;;9.33;4.70;;;6.50;76.50;;;;;;5022792;28;20462;-40
2021/03/16 02:53:43;;;;;;;15.30;6.90;;;6.50;76.40;;;;;;5023763;28;20448;-39
2021/03/16 02:56:10;;;;;;;7.20;4.20;;;6.40;76.10;;;;;;5005523;28;20893;-39
2021/03/16 02:58:39;;;;;;;10.83;4.33;;;6.50;75.20;;;;;;5039084;28;20495;-39
2021/03/16 03:01:06;;;;;;;11.20;4.50;;;6.50;74.80;;;;;;5008130;28;20550;-39
2021/03/16 03:03:38;;;;;;;12.30;4.50;;;6.40;75.30;;;;;;5023689;28;20459;-39
2021/03/16 03:06:06;;;;;;;8.30;3.60;;;6.40;75.20;;;;;;5020474;28;21032;-39
2021/03/16 03:08:34;;;;;;;9.00;4.23;;;6.50;74.90;;;;;;5006947;28;21012;-39
2021/03/16 03:11:00;;;;;;;7.60;3.93;;;6.50;74.90;;;;;;5008117;28;20961;-39
2021/03/16 03:13:26;;;;;;;9.37;3.97;;;6.50;74.80;;;;;;5029235;28;20554;-39
2021/03/16 03:15:55;;;;;;;9.50;4.37;;;6.50;74.70;;;;;;5025828;28;20491;-39
2021/03/16 03:18:22;;;;;;;10.27;4.27;;;6.50;74.70;;;;;;5028937;28;20509;-39
2021/03/16 03:20:49;;;;;;;6.53;3.10;;;6.40;75.00;;;;;;5028689;28;20562;-39
2021/03/16 03:23:26;;;;;;;10.73;3.77;;;6.40;74.90;;;;;;5008422;28;20590;-39
2021/03/16 03:26:00;;;;;;;4.57;3.37;;;6.30;75.10;;;;;;5027489;28;20815;-39
2021/03/16 03:28:29;;;;;;;7.87;3.53;;;6.30;75.00;;;;;;5024695;28;20532;-39
2021/03/16 03:31:00;;;;;;;10.20;3.73;;;6.30;74.90;;;;;;5010463;28;20502;-39
2021/03/16 03:33:29;;;;;;;5.63;2.97;;;6.30;74.50;;;;;;5024007;28;20542;-39
2021/03/16 03:35:57;;;;;;;6.90;3.30;;;6.40;74.20;;;;;;5026290;28;20719;-39
2021/03/16 03:38:33;;;;;;;8.83;2.70;;;6.30;74.80;;;;;;5027730;28;20443;-39
2021/03/16 03:41:02;;;;;;;6.10;2.90;;;6.30;75.10;;;;;;5026207;28;20496;-39
2021/03/16 03:43:30;;;;;;;8.93;3.60;;;6.40;75.20;;;;;;5026900;28;20460;-39
2021/03/16 03:45:58;;;;;;;4.50;3.27;;;6.30;75.20;;;;;;5008455;28;20534;-39
2021/03/16 03:48:27;;;;;;;10.00;3.20;;;6.40;75.30;;;;;;5007402;28;20448;-41
2021/03/16 03:50:57;;;;;;;7.20;3.30;;;6.40;75.70;;;;;;5029324;28;20456;-41
2021/03/16 03:53:27;;;;;;;7.17;4.07;;;6.50;76.40;;;;;;5024230;28;20456;-41
2021/03/16 03:55:55;;;;;;;5.73;3.57;;;6.40;77.10;;;;;;5024218;28;20952;-41
2021/03/16 03:58:24;;;;;;;4.90;3.33;;;6.40;77.50;;;;;;5019947;28;20769;-41
2021/03/16 04:00:50;;;;;;;14.47;4.40;;;6.30;78.00;;;;;;5010381;28;20865;-41
2021/03/16 04:03:18;;;;;;;11.43;4.43;;;6.40;78.10;;;;;;5025368;28;20483;-41
2021/03/16 04:05:50;;;;;;;5.40;4.10;;;6.30;78.20;;;;;;5028221;28;20459;-41
2021/03/16 04:08:17;;;;;;;7.30;4.23;;;6.30;78.30;;;;;;5027670;28;20839;-41
2021/03/16 04:10:44;;;;;;;7.97;4.63;;;6.30;78.20;;;;;;5025264;28;20460;-41
2021/03/16 04:13:11;;;;;;;7.67;3.37;;;6.30;78.50;;;;;;5026881;28;20463;-41
2021/03/16 04:15:38;;;;;;;13.07;4.00;;;6.30;79.00;;;;;;5025664;28;20513;-41
2021/03/16 04:18:06;;;;;;;11.87;4.07;;;6.30;78.90;;;;;;5007663;28;20850;-41
2021/03/16 04:20:33;;;;;;;5.60;4.67;;;6.30;78.90;;;;;;5026528;28;20551;-41
2021/03/16 04:22:59;;;;;;;9.53;3.63;;;6.20;79.00;;;;;;5025765;28;20579;-41
2021/03/16 04:25:28;;;;;;;5.77;3.97;;;6.20;79.10;;;;;;5009340;28;20851;-41
2021/03/16 04:28:12;;;;;;;5.50;3.67;;;6.20;79.60;;;;;;5027137;28;20545;-41
2021/03/16 04:30:38;;;;;;;9.70;4.00;;;6.20;79.60;;;;;;4992187;28;20558;-41
2021/03/16 04:33:05;;;;;;;12.30;4.50;;;6.20;79.60;;;;;;5022614;28;20468;-41
2021/03/16 04:35:33;;;;;;;6.73;4.30;;;6.20;79.70;;;;;;5009282;28;20960;-41
2021/03/16 04:38:00;;;;;;;10.40;4.30;;;6.20;79.70;;;;;;5026587;28;20458;-41
2021/03/16 04:40:27;;;;;;;13.37;8.07;;;6.20;79.60;;;;;;5010236;28;20507;-41
2021/03/16 04:42:53;;;;;;;27.97;10.00;;;6.20;79.80;;;;;;5039931;28;20491;-41
2021/03/16 04:45:22;;;;;;;17.60;9.00;;;6.20;79.90;;;;;;5025015;28;20495;-40
2021/03/16 04:47:48;;;;;;;8.03;5.17;;;6.20;80.00;;;;;;5031160;28;20881;-40
2021/03/16 04:50:15;;;;;;;11.33;5.07;;;6.20;80.00;;;;;;5027482;28;20506;-41
2021/03/16 04:52:45;;;;;;;10.20;5.10;;;6.20;79.90;;;;;;5027915;28;20490;-41
2021/03/16 04:55:13;;;;;;;14.77;4.77;;;6.20;79.90;;;;;;5008795;28;20459;-41
2021/03/16 04:57:40;;;;;;;13.33;5.13;;;6.20;79.90;;;;;;4989713;28;20554;-41
2021/03/16 05:00:07;;;;;;;7.60;5.20;;;6.10;79.90;;;;;;5005445;28;20455;-41
2021/03/16 05:02:33;;;;;;;10.93;4.43;;;6.10;80.00;;;;;;5008906;28;20943;-41
2021/03/16 05:05:00;;;;;;;9.40;5.40;;;6.20;79.80;;;;;;5026864;28;20534;-41
2021/03/16 05:07:26;;;;;;;6.80;4.70;;;6.10;79.80;;;;;;5024217;28;20560;-41
2021/03/16 05:09:53;;;;;;;7.83;4.97;;;6.10;79.80;;;;;;5006123;28;20544;-41
2021/03/16 05:12:23;;;;;;;10.97;5.07;;;6.10;79.80;;;;;;5009468;28;21156;-41
2021/03/16 05:14:50;;;;;;;10.90;5.80;;;6.10;79.80;;;;;;5008549;28;20891;-41
2021/03/16 05:17:16;;;;;;;9.63;5.10;;;6.10;79.90;;;;;;4988606;28;20803;-41
2021/03/16 05:19:50;;;;;;;11.70;4.70;;;6.10;79.80;;;;;;5009498;28;20455;-41
2021/03/16 05:22:16;;;;;;;5.33;4.40;;;6.00;79.70;;;;;;5026005;28;20562;-41
2021/03/16 05:24:49;;;;;;;8.17;4.83;;;6.00;79.70;;;;;;5024955;28;20466;-41
2021/03/16 05:27:16;;;;;;;11.50;5.50;;;6.00;79.70;;;;;;4998842;28;21095;-41
2021/03/16 05:29:42;;;;;;;9.33;5.00;;;6.00;79.60;;;;;;5023803;28;20467;-40
2021/03/16 05:32:08;;;;;;;8.70;5.10;;;6.00;79.40;;;;;;5024496;28;20471;-41
2021/03/16 05:34:35;;;;;;;13.57;6.10;;;6.00;79.40;;;;;;5025038;28;20467;-41
2021/03/16 05:37:01;;;;;;;12.07;5.37;;;5.90;79.20;;;;;;5005793;28;20545;-41
2021/03/16 05:39:27;;;;;;;9.30;4.50;;;5.90;79.30;;;;;;5025622;28;20458;-41
2021/03/16 05:41:54;;;;;;;11.47;5.67;;;5.90;79.40;;;;;;5021529;28;20479;-41
2021/03/16 05:44:21;;;;;;;15.03;6.27;;;5.90;79.40;;;;;;5007659;28;21122;-41
2021/03/16 05:46:49;;;;;;;12.90;6.00;;;5.90;79.50;;;;;;5007889;28;20463;-41
2021/03/16 05:49:17;;;;;;;10.80;6.70;;;5.90;79.50;;;;;;5025926;28;20948;-41
2021/03/16 05:51:48;;;;;;;12.00;5.37;;;5.90;79.50;;;;;;5025925;28;20542;-41
2021/03/16 05:54:21;;;;;;;7.73;5.60;;;6.00;79.50;;;;;;5024994;28;20481;-41
2021/03/16 05:56:48;;;;;;;14.27;6.37;;;6.00;79.20;;;;;;5023717;28;20538;-41
2021/03/16 05:59:24;;;;;;;23.37;7.57;;;6.00;79.20;;;;;;5006830;28;20459;-41
2021/03/16 06:01:50;;;;;;;15.73;6.47;;;6.00;79.20;;;;;;5007949;28;20487;-41
2021/03/16 06:04:17;;;;;;;15.20;6.90;;;6.00;79.40;;;;;;5025806;28;20538;-40
2021/03/16 06:06:44;;;;;;;12.33;5.83;;;6.00;78.80;;;;;;5024265;28;20460;-41
2021/03/16 06:09:13;;;;;;;10.67;6.97;;;6.10;78.80;;;;;;5023829;28;20532;-40
2021/03/16 06:11:50;;;;;;;17.67;6.40;;;6.10;78.60;;;;;;5023919;28;20477;-40
2021/03/16 06:14:16;;;;;;;10.13;6.30;;;6.10;78.60;;;;;;5019403;28;20706;-41
2021/03/16 06:16:43;;;;;;;15.17;8.10;;;6.10;78.50;;;;;;5027165;28;20517;-41
2021/03/16 06:19:12;;;;;;;9.70;6.40;;;6.10;78.60;;;;;;5023112;28;20521;-41
2021/03/16 06:21:38;;;;;;;12.07;7.27;;;6.10;78.50;;;;;;5024790;28;21131;-41
2021/03/16 06:24:06;;;;;;;13.03;6.40;;;6.20;78.30;;;;;;5016322;28;21004;-40
2021/03/16 06:26:33;;;;;;;7.80;5.00;;;6.20;78.20;;;;;;5020415;28;20594;-41
2021/03/16 06:29:09;;;;;;;10.60;6.03;;;6.20;78.40;;;;;;5022570;28;20521;-41
2021/03/16 06:31:35;;;;;;;10.93;5.10;;;6.20;78.60;;;;;;5022955;28;20479;-41
2021/03/16 06:34:03;;;;;;;11.63;6.03;;;6.20;78.60;;;;;;5004712;28;20810;-40
2021/03/16 06:36:36;;;;;;;11.17;6.00;;;6.30;78.50;;;;;;5022259;28;20467;-41
2021/03/16 06:39:03;;;;;;;8.70;5.93;;;6.30;78.10;;;;;;5022700;28;20531;-41
2021/03/16 06:41:36;;;;;;;8.37;4.90;;;6.30;77.40;;;;;;5030785;28;20522;-40
2021/03/16 06:44:04;;;;;;;13.37;4.93;;;6.40;77.40;;;;;;5026135;28;20486;-41
2021/03/16 06:46:32;;;;;;;9.07;5.80;;;6.40;77.10;;;;;;5029991;28;20459;-40
2021/03/16 06:49:17;;;;;;;13.37;5.87;;;6.40;77.00;;;;;;5012485;28;21093;-41
2021/03/16 06:51:44;;;;;;;9.00;6.70;;;6.40;77.50;;;;;;5012399;28;20455;-41
2021/03/16 06:54:11;;;;;;;8.73;5.00;;;6.40;77.60;;;;;;5031213;28;20482;-41
2021/03/16 06:56:53;;;;;;;16.70;7.10;;;6.50;78.00;;;;;;5029657;28;20891;-41
2021/03/16 06:59:26;;;;;;;11.50;6.80;;;6.50;78.20;;;;;;5028297;28;20827;-41
2021/03/16 07:01:52;;;;;;;14.07;6.40;;;6.60;77.70;;;;;;5012431;28;21258;-41
2021/03/16 07:04:21;;;;;;;11.87;7.47;;;6.70;77.10;;;;;;5048661;28;20450;-41
2021/03/16 07:06:48;;;;;;;8.27;6.23;;;6.70;77.40;;;;;;5030621;28;20505;-41
2021/03/16 07:09:22;;;;;;;9.80;5.97;;;6.80;77.50;;;;;;5030093;28;20848;-41
2021/03/16 07:11:55;;;;;;;13.00;6.80;;;6.80;77.10;;;;;;5028116;28;20463;-41
2021/03/16 07:14:21;;;;;;;13.63;6.10;;;6.90;76.90;;;;;;5029749;28;20534;-41
2021/03/16 07:16:49;;;;;;;11.63;6.23;;;6.90;77.20;;;;;;5026666;28;20940;-41
2021/03/16 07:19:21;;;;;;;13.17;5.90;;;7.00;76.90;;;;;;5026876;28;20546;-41
2021/03/16 07:21:52;;;;;;;9.40;6.30;;;7.10;76.80;;;;;;5007762;28;20495;-41
2021/03/16 07:24:22;;;;;;;8.37;6.47;;;7.10;76.10;;;;;;5024280;28;20475;-41
2021/03/16 07:26:49;;;;;;;10.73;5.10;;;7.20;76.50;;;;;;5023769;28;20479;-41
2021/03/16 07:29:16;;;;;;;11.27;5.90;;;7.30;76.20;;;;;;5007657;28;20551;-41
2021/03/16 07:32:02;;;;;;;9.53;4.90;;;7.30;75.80;;;;;;5014738;28;20471;-41
2021/03/16 07:34:30;;;;;;;8.50;5.47;;;7.30;75.20;;;;;;5026921;28;20469;-41
2021/03/16 07:36:56;;;;;;;9.00;4.07;;;7.30;75.10;;;;;;5028210;28;20555;-41
2021/03/16 07:39:25;;;;;;;9.43;5.20;;;7.40;73.70;;;;;;5026168;28;20448;-41
2021/03/16 07:41:52;;;;;;;9.43;4.97;;;7.40;73.50;;;;;;5011112;28;20545;-41
2021/03/16 07:44:22;;;;;;;9.70;5.50;;;7.30;73.70;;;;;;5027329;28;20887;-41
2021/03/16 07:46:59;;;;;;;11.13;4.23;;;7.30;74.10;;;;;;5026700;28;20859;-41
2021/03/16 07:49:29;;;;;;;8.77;4.83;;;7.40;74.10;;;;;;4993590;28;20464;-41
2021/03/16 07:51:55;;;;;;;8.50;5.10;;;7.50;73.70;;;;;;5027455;28;20538;-41
2021/03/16 07:54:22;;;;;;;8.60;5.47;;;7.40;72.80;;;;;;5010473;28;20452;-41
2021/03/16 07:56:59;;;;;;;14.93;5.60;;;7.50;73.20;;;;;;5009806;28;20452;-41
2021/03/16 07:59:34;;;;;;;6.90;5.30;;;7.50;73.40;;;;;;5005040;28;20498;-41
2021/03/16 08:02:01;;;;;;;7.43;4.87;;;7.50;73.40;;;;;;5023821;28;20549;-41
2021/03/16 08:04:41;;;;;;;10.20;5.70;;;7.50;73.60;;;;;;5025782;28;20483;-41
2021/03/16 08:07:12;;;;;;;10.00;5.40;;;7.60;73.80;;;;;;5022743;28;21036;-41
2021/03/16 08:09:44;;;;;;;13.90;4.83;;;7.60;73.40;;;;;;5023216;28;21236;-41
2021/03/16 08:12:30;;;;;;;10.93;5.23;;;7.60;73.20;;;;;;5027153;28;20473;-41
2021/03/16 08:15:15;;;;;;;13.23;5.23;;;7.70;73.10;;;;;;5025266;28;20463;-41
2021/03/16 08:17:57;;;;;;;9.80;4.53;;;7.80;72.70;;;;;;5040136;28;20479;-41
2021/03/16 08:20:28;;;;;;;10.07;4.53;;;7.80;72.50;;;;;;5023140;28;20685;-41
2021/03/16 08:23:11;;;;;;;11.07;4.80;;;7.90;72.40;;;;;;5024861;28;21263;-41
2021/03/16 08:25:43;;;;;;;8.27;4.77;;;8.00;71.70;;;;;;5028326;28;20491;-41
2021/03/16 08:28:16;;;;;;;6.67;4.20;;;8.00;71.00;;;;;;5026468;28;20502;-41
2021/03/16 08:30:43;;;;;;;6.17;4.47;;;8.10;70.70;;;;;;5024842;28;20487;-41
2021/03/16 08:33:10;;;;;;;10.07;4.33;;;8.30;69.80;;;;;;5005500;28;20867;-41
2021/03/16 08:35:47;;;;;;;7.30;4.00;;;8.30;69.60;;;;;;5026512;28;20555;-41
2021/03/16 08:38:43;;;;;;;10.63;4.70;;;8.50;69.30;;;;;;5011153;28;20465;-41
2021/03/16 08:41:13;;;;;;;7.07;4.17;;;8.70;68.50;;;;;;5024384;28;20459;-41
2021/03/16 08:43:42;;;;;;;8.77;4.07;;;8.90;67.90;;;;;;5027464;28;20523;-41
2021/03/16 08:46:11;;;;;;;11.00;4.50;;;8.90;66.50;;;;;;5006245;28;20472;-40
2021/03/16 08:48:41;;;;;;;8.23;4.47;;;9.00;66.40;;;;;;5025445;28;20463;-41
2021/03/16 08:51:11;;;;;;;11.37;4.77;;;9.10;66.40;;;;;;5024878;28;20548;-40
2021/03/16 08:53:37;;;;;;;7.83;5.30;;;9.10;66.00;;;;;;5026042;28;20467;-41
2021/03/16 08:56:04;;;;;;;9.83;4.87;;;9.00;66.40;;;;;;5005196;28;20467;-40
2021/03/16 08:58:32;;;;;;;7.10;4.53;;;9.00;67.10;;;;;;4991087;28;20487;-41
2021/03/16 09:00:58;;;;;;;9.17;4.73;;;9.20;67.20;;;;;;5008151;28;20888;-41
2021/03/16 09:03:29;;;;;;;13.43;4.90;;;9.40;65.80;;;;;;5003590;28;20498;-41
2021/03/16 09:05:55;;;;;;;10.03;5.50;;;9.40;65.80;;;;;;4991768;28;20467;-41
2021/03/16 09:08:29;;;;;;;6.30;4.80;;;9.30;65.00;;;;;;5026961;28;20646;-41
2021/03/16 09:10:58;;;;;;;8.10;5.20;;;9.30;66.10;;;;;;5005901;28;20492;-41
2021/03/16 09:13:29;;;;;;;9.63;5.67;;;9.30;67.30;;;;;;5025788;28;20468;-40
2021/03/16 09:15:55;;;;;;;7.70;4.80;;;9.20;64.90;;;;;;5008031;28;20503;-41
2021/03/16 09:18:23;;;;;;;10.33;5.80;;;9.10;65.10;;;;;;5007099;28;20823;-40
2021/03/16 09:20:49;;;;;;;7.50;4.70;;;9.20;66.00;;;;;;5025954;28;20865;-41
2021/03/16 09:23:19;;;;;;;9.83;5.37;;;9.20;65.00;;;;;;5025309;28;20495;-41
2021/03/16 09:25:46;;;;;;;11.17;5.30;;;9.10;64.90;;;;;;5024749;28;20551;-40
2021/03/16 09:28:14;;;;;;;4.83;4.43;;;9.20;65.20;;;;;;5025319;28;20625;-40
2021/03/16 09:30:55;;;;;;;10.50;5.03;;;9.20;64.30;;;;;;5028556;28;20561;-41
2021/03/16 09:33:26;;;;;;;6.23;4.93;;;9.10;63.90;;;;;;5029650;28;20454;-41
2021/03/16 09:36:02;;;;;;;7.90;5.67;;;9.00;64.80;;;;;;5004392;28;21142;-41
2021/03/16 09:38:29;;;;;;;9.50;4.60;;;9.00;65.80;;;;;;5004338;28;20455;-41
2021/03/16 09:40:56;;;;;;;12.20;5.23;;;9.00;66.40;;;;;;5043112;28;20755;-41
2021/03/16 09:43:29;;;;;;;11.00;5.53;;;8.90;66.10;;;;;;5008680;28;20484;-41
2021/03/16 09:46:04;;;;;;;10.73;4.73;;;8.90;65.70;;;;;;5025439;28;20471;-41
2021/03/16 09:48:33;;;;;;;9.23;5.00;;;8.70;65.30;;;;;;5026476;28;20444;-41
2021/03/16 09:51:20;;;;;;;9.60;5.77;;;8.60;65.40;;;;;;5023573;28;20452;-41
2021/03/16 09:53:49;;;;;;;10.40;4.80;;;8.60;65.50;;;;;;5022117;28;20475;-41
2021/03/16 09:56:16;;;;;;;9.60;4.97;;;8.60;65.60;;;;;;5025259;28;20813;-41
2021/03/16 09:58:50;;;;;;;6.93;4.30;;;8.60;66.00;;;;;;5024621;28;20546;-41
2021/03/16 10:01:21;;;;;;;11.30;3.80;;;8.60;65.10;;;;;;5006316;28;20478;-41
2021/03/16 10:03:59;;;;;;;10.00;6.33;;;8.70;64.40;;;;;;5022572;28;20544;-41
2021/03/16 10:06:34;;;;;;;9.33;4.30;;;8.70;64.70;;;;;;5005748;28;20466;-41
2021/03/16 10:09:22;;;;;;;5.73;3.53;;;8.70;64.80;;;;;;5023127;28;20997;-41
2021/03/16 10:11:52;;;;;;;4.63;2.80;;;8.80;64.90;;;;;;5012556;28;20564;-41
2021/03/16 10:14:26;;;;;;;6.80;3.50;;;8.80;64.10;;;;;;5025149;28;20461;-41
2021/03/16 10:16:57;;;;;;;6.63;3.57;;;8.80;64.00;;;;;;5010774;28;20611;-41
2021/03/16 10:19:24;;;;;;;7.00;3.33;;;8.80;63.90;;;;;;5026719;28;20928;-41
2021/03/16 10:21:51;;;;;;;4.97;2.97;;;8.70;64.40;;;;;;5008265;28;20470;-41
2021/03/16 10:24:26;;;;;;;5.50;3.30;;;8.70;64.60;;;;;;5009796;28;20495;-41
2021/03/16 10:26:59;;;;;;;8.10;2.43;;;8.70;65.10;;;;;;5026992;28;20454;-41
2021/03/16 10:29:25;;;;;;;4.10;3.10;;;8.70;64.20;;;;;;5026945;28;20552;-41
2021/03/16 10:31:52;;;;;;;6.00;3.07;;;8.70;63.80;;;;;;5026240;28;20455;-41
2021/03/16 10:34:21;;;;;;;5.17;2.73;;;8.70;63.90;;;;;;5010071;28;20517;-41
2021/03/16 10:36:47;;;;;;;6.73;2.90;;;8.70;64.00;;;;;;5026964;28;20888;-41
2021/03/16 10:39:17;;;;;;;5.03;2.97;;;8.70;64.30;;;;;;5029487;28;20875;-41
2021/03/16 10:41:44;;;;;;;8.60;3.30;;;8.70;64.20;;;;;;5025263;28;20447;-41
2021/03/16 10:44:10;;;;;;;6.67;3.10;;;8.60;63.80;;;;;;5047224;28;20555;-41
2021/03/16 10:46:39;;;;;;;6.73;2.90;;;8.60;64.10;;;;;;5003634;28;20546;-41
2021/03/16 10:49:05;;;;;;;6.87;2.40;;;8.60;64.70;;;;;;5007927;28;20452;-41
2021/03/16 10:51:33;;;;;;;6.70;3.27;;;8.70;64.60;;;;;;5011810;28;20500;-41
2021/03/16 10:54:07;;;;;;;8.33;3.07;;;8.60;64.40;;;;;;5028086;28;20716;-41
2021/03/16 10:56:34;;;;;;;6.93;2.83;;;8.70;64.10;;;;;;5006779;28;20863;-41
2021/03/16 10:59:00;;;;;;;7.50;2.70;;;8.60;64.70;;;;;;5009031;28;20472;-41
2021/03/16 11:01:27;;;;;;;5.53;3.00;;;8.70;64.80;;;;;;5009801;28;21043;-41
2021/03/16 11:03:53;;;;;;;5.73;2.90;;;8.70;64.90;;;;;;5026014;28;20489;-41
2021/03/16 11:06:27;;;;;;;5.63;3.47;;;8.70;64.80;;;;;;5030437;28;20443;-41
2021/03/16 11:08:55;;;;;;;6.73;2.97;;;8.70;64.80;;;;;;5028356;28;20536;-41
2021/03/16 11:11:22;;;;;;;7.50;2.93;;;8.70;65.20;;;;;;5021375;28;21920;-41
2021/03/16 11:13:48;;;;;;;4.40;2.70;;;8.80;65.10;;;;;;5027895;28;20468;-41
2021/03/16 11:16:14;;;;;;;10.77;3.87;;;8.90;65.20;;;;;;5026616;28;20844;-41
2021/03/16 11:18:42;;;;;;;6.57;2.70;;;9.00;65.10;;;;;;5008481;28;20933;-41
2021/03/16 11:21:10;;;;;;;5.13;3.57;;;9.10;64.90;;;;;;5007923;28;20463;-41
2021/03/16 11:23:37;;;;;;;7.47;3.10;;;9.20;64.10;;;;;;5026472;28;21007;-41
2021/03/16 11:26:07;;;;;;;7.40;3.67;;;9.40;63.70;;;;;;5024113;28;20450;-41
2021/03/16 11:28:37;;;;;;;4.87;3.07;;;9.50;62.60;;;;;;5026097;28;20949;-41
2021/03/16 11:31:05;;;;;;;8.20;2.73;;;9.50;62.50;;;;;;5026031;28;20451;-41
2021/03/16 11:33:49;;;;;;;4.40;2.50;;;9.50;62.60;;;;;;5028051;28;20458;-41
2021/03/16 11:36:15;;;;;;;5.23;2.97;;;9.50;62.60;;;;;;5009990;28;21064;-41
2021/03/16 11:38:45;;;;;;;5.70;2.90;;;9.60;63.20;;;;;;5006516;28;21077;-41
2021/03/16 11:41:15;;;;;;;5.40;3.23;;;9.70;62.50;;;;;;5027688;28;20501;-41
2021/03/16 11:43:41;;;;;;;3.27;2.77;;;9.80;62.80;;;;;;5024207;28;21020;-41
2021/03/16 11:46:08;;;;;;;6.83;2.97;;;9.90;62.30;;;;;;5026433;28;20499;-41
2021/03/16 11:48:35;;;;;;;6.43;2.30;;;10.00;61.00;;;;;;5008071;28;20459;-41
2021/03/16 11:51:01;;;;;;;7.37;3.67;;;10.10;61.80;;;;;;5022874;28;20455;-41
2021/03/16 11:53:30;;;;;;;3.13;2.73;;;10.20;62.50;;;;;;5024902;28;20559;-41
2021/03/16 11:56:00;;;;;;;4.80;2.80;;;10.50;60.40;;;;;;5028198;28;20886;-41
2021/03/16 11:58:32;;;;;;;8.83;2.50;;;10.70;59.20;;;;;;5027958;28;20538;-41
2021/03/16 12:00:58;;;;;;;4.03;2.87;;;10.70;59.80;;;;;;5026721;28;20536;-41
2021/03/16 12:03:25;;;;;;;4.83;2.50;;;10.70;57.10;;;;;;4991711;28;20510;-41
2021/03/16 12:05:55;;;;;;;5.53;2.30;;;10.60;56.40;;;;;;5027199;28;20566;-41
2021/03/16 12:08:21;;;;;;;3.47;2.60;;;10.50;56.20;;;;;;5034228;28;20531;-41
2021/03/16 12:10:48;;;;;;;3.40;3.10;;;10.40;56.50;;;;;;5025980;28;20488;-41
2021/03/16 12:13:15;;;;;;;3.20;2.80;;;10.40;56.70;;;;;;4993067;28;20990;-41
2021/03/16 12:15:41;;;;;;;3.63;2.47;;;10.30;56.60;;;;;;5024364;28;20507;-41
2021/03/16 12:18:08;;;;;;;2.73;2.47;;;10.30;56.50;;;;;;5008188;28;20455;-41
2021/03/16 12:20:34;;;;;;;5.50;2.87;;;10.20;56.90;;;;;;5010933;28;20816;-41
2021/03/16 12:23:01;;;;;;;4.67;3.30;;;10.20;57.60;;;;;;4991217;28;20857;-41
2021/03/16 12:25:27;;;;;;;3.60;3.30;;;10.20;57.40;;;;;;5009180;28;20456;-41
2021/03/16 12:27:54;;;;;;;3.93;2.53;;;10.20;57.50;;;;;;5010637;28;20991;-41
2021/03/16 12:30:21;;;;;;;7.03;3.23;;;10.20;58.00;;;;;;5009927;28;20539;-41
2021/03/16 12:32:47;;;;;;;3.00;2.70;;;10.10;58.40;;;;;;5008081;28;20464;-41
2021/03/16 12:35:22;;;;;;;3.57;2.50;;;10.10;59.90;;;;;;5013337;28;20451;-41
2021/03/16 12:37:49;;;;;;;4.33;2.33;;;10.10;60.40;;;;;;4993579;28;20862;-41
2021/03/16 12:40:15;;;;;;;6.37;3.20;;;10.00;60.80;;;;;;5011097;28;20588;-41
2021/03/16 12:42:41;;;;;;;3.50;2.90;;;10.00;61.00;;;;;;5027345;28;21137;-41
2021/03/16 12:45:09;;;;;;;5.20;3.10;;;10.00;61.40;;;;;;5025195;28;20834;-41
2021/03/16 12:47:36;;;;;;;3.87;2.53;;;9.90;61.30;;;;;;5009959;28;20452;-41
2021/03/16 12:50:06;;;;;;;3.43;2.80;;;9.80;61.70;;;;;;5027181;28;20447;-41
2021/03/16 12:52:42;;;;;;;5.80;3.03;;;9.70;62.30;;;;;;5030190;28;20854;-41
2021/03/16 12:55:10;;;;;;;7.13;3.30;;;9.70;62.80;;;;;;5025504;28;20460;-41
2021/03/16 12:57:36;;;;;;;7.03;3.50;;;9.60;62.80;;;;;;5025387;28;20544;-41
2021/03/16 13:00:05;;;;;;;4.47;2.60;;;9.60;63.10;;;;;;5025089;28;20538;-41
2021/03/16 13:02:32;;;;;;;8.33;3.43;;;9.50;63.60;;;;;;5010465;28;20549;-41
2021/03/16 13:05:08;;;;;;;6.33;3.07;;;9.50;64.60;;;;;;5027652;28;20484;-41
2021/03/16 13:07:35;;;;;;;3.87;2.50;;;9.50;65.20;;;;;;5011218;28;20470;-41